createdAt,value
2016-11-03T00:00:56.955Z,0
2016-11-03T00:01:56.920Z,0
2016-11-03T00:02:56.944Z,0
2016-11-03T00:03:56.983Z,0
2016-11-03T00:04:56.980Z,0
2016-11-03T00:05:56.977Z,0
2016-11-03T00:07:02.774Z,0
2016-11-03T00:08:02.503Z,0
2016-11-03T00:09:07.051Z,0
2016-11-03T00:09:59.851Z,0
2016-11-03T00:11:08.313Z,0
2016-11-03T00:12:07.465Z,0
2016-11-03T00:13:09.188Z,0
2016-11-03T00:14:07.275Z,0
2016-11-03T00:15:09.160Z,0
2016-11-03T00:16:07.986Z,0
2016-11-03T00:17:08.133Z,0
2016-11-03T00:18:07.454Z,0
2016-11-03T00:19:08.239Z,0
2016-11-03T00:20:07.215Z,0
2016-11-03T00:21:07.829Z,0
2016-11-03T00:22:07.007Z,0
2016-11-03T00:23:06.565Z,0
2016-11-03T00:24:09.115Z,0
2016-11-03T00:25:07.996Z,0
2016-11-03T00:26:07.209Z,0
2016-11-03T00:27:07.528Z,0
2016-11-03T00:28:07.380Z,0
2016-11-03T00:29:07.813Z,0
2016-11-03T00:30:06.821Z,0
2016-11-03T00:31:06.700Z,0
2016-11-03T00:32:05.776Z,0
2016-11-03T00:33:06.752Z,0
2016-11-03T00:33:56.975Z,0
2016-11-03T00:34:57.001Z,0
2016-11-03T00:35:57.007Z,0
2016-11-03T00:36:56.987Z,0
2016-11-03T00:37:56.947Z,0
2016-11-03T00:38:56.958Z,0
2016-11-03T00:39:56.968Z,0
2016-11-03T00:40:56.925Z,0
2016-11-03T00:41:57.019Z,0
2016-11-03T00:42:56.947Z,0
2016-11-03T00:43:56.987Z,0
2016-11-03T00:44:57.183Z,0
2016-11-03T00:45:56.947Z,0
2016-11-03T00:46:56.999Z,0
2016-11-03T00:47:57.181Z,0
2016-11-03T00:48:56.935Z,0
2016-11-03T00:49:56.972Z,0
2016-11-03T00:50:57.319Z,0
2016-11-03T00:51:56.957Z,0
2016-11-03T00:52:57.011Z,0
2016-11-03T00:53:56.945Z,0
2016-11-03T00:54:57.620Z,0
2016-11-03T00:55:56.927Z,0
2016-11-03T00:56:56.994Z,0
2016-11-03T00:57:56.966Z,0
2016-11-03T00:58:56.983Z,0
2016-11-03T00:59:56.964Z,0
2016-11-03T01:00:56.975Z,0
2016-11-03T01:01:56.966Z,0
2016-11-03T01:02:57.555Z,0
2016-11-03T01:03:56.961Z,0
2016-11-03T01:04:57.011Z,0
2016-11-03T01:05:57.023Z,0
2016-11-03T01:06:56.961Z,0
2016-11-03T01:07:56.999Z,0
2016-11-03T01:08:57.282Z,0
2016-11-03T01:09:56.982Z,0
2016-11-03T01:10:56.982Z,0
2016-11-03T01:11:57.266Z,0
2016-11-03T01:12:56.986Z,0
2016-11-03T01:13:56.990Z,0
2016-11-03T01:14:56.999Z,0
2016-11-03T01:15:57.012Z,0
2016-11-03T01:16:56.988Z,0
2016-11-03T01:17:57.232Z,0
2016-11-03T01:18:57.010Z,0
2016-11-03T01:19:57.081Z,0
2016-11-03T01:20:57.036Z,0
2016-11-03T01:21:56.999Z,0
2016-11-03T01:22:56.985Z,0
2016-11-03T01:23:57.169Z,0
2016-11-03T01:24:57.575Z,0
2016-11-03T01:25:56.995Z,0
2016-11-03T01:26:56.972Z,0
2016-11-03T01:27:57.010Z,0
2016-11-03T01:28:56.999Z,0
2016-11-03T01:29:57.213Z,0
2016-11-03T01:30:57.097Z,0
2016-11-03T01:31:57.062Z,0
2016-11-03T01:32:57.262Z,0
2016-11-03T01:33:56.998Z,0
2016-11-03T01:34:57.018Z,0
2016-11-03T01:35:57.252Z,0
2016-11-03T01:36:57.008Z,0
2016-11-03T01:37:57.169Z,0
2016-11-03T01:38:57.505Z,0
2016-11-03T01:39:57.037Z,0
2016-11-03T01:40:57.047Z,0
2016-11-03T01:41:57.146Z,0
2016-11-03T01:42:56.990Z,0
2016-11-03T01:43:56.991Z,0
2016-11-03T01:44:57.008Z,0
2016-11-03T01:45:57.006Z,0
2016-11-03T01:46:57.009Z,0
2016-11-03T01:47:57.305Z,0
2016-11-03T01:48:57.033Z,0
2016-11-03T01:49:57.059Z,0
2016-11-03T01:50:57.116Z,0
2016-11-03T01:51:57.024Z,0
2016-11-03T01:52:57.025Z,0
2016-11-03T01:53:57.120Z,0
2016-11-03T01:54:57.059Z,0
2016-11-03T01:55:57.114Z,0
2016-11-03T01:56:57.724Z,0
2016-11-03T01:57:57.043Z,0
2016-11-03T01:58:57.066Z,0
2016-11-03T01:59:57.174Z,0
2016-11-03T02:00:57.031Z,0
2016-11-03T02:01:57.226Z,0
2016-11-03T02:02:57.004Z,0
2016-11-03T02:03:57.027Z,0
2016-11-03T02:04:57.043Z,0
2016-11-03T02:05:57.060Z,0
2016-11-03T02:06:57.107Z,0
2016-11-03T02:07:57.062Z,0
2016-11-03T02:08:57.307Z,0
2016-11-03T02:09:57.025Z,0
2016-11-03T02:10:57.118Z,0
2016-11-03T02:11:57.358Z,0
2016-11-03T02:12:57.047Z,0
2016-11-03T02:13:57.050Z,0
2016-11-03T02:14:57.388Z,0
2016-11-03T02:15:57.034Z,0
2016-11-03T02:16:57.092Z,0
2016-11-03T02:17:57.319Z,0
2016-11-03T02:18:57.060Z,0
2016-11-03T02:19:57.130Z,0
2016-11-03T02:20:57.070Z,0
2016-11-03T02:21:57.057Z,0
2016-11-03T02:22:57.063Z,0
2016-11-03T02:23:57.315Z,0
2016-11-03T02:24:57.031Z,0
2016-11-03T02:25:57.006Z,0
2016-11-03T02:26:57.233Z,0
2016-11-03T02:27:57.036Z,0
2016-11-03T02:28:57.070Z,0
2016-11-03T02:29:57.166Z,0
2016-11-03T02:30:57.069Z,0
2016-11-03T02:31:57.092Z,0
2016-11-03T02:32:57.304Z,0
2016-11-03T02:33:57.024Z,0
2016-11-03T02:34:57.049Z,0
2016-11-03T02:35:57.035Z,0
2016-11-03T02:36:57.080Z,0
2016-11-03T02:37:57.453Z,0
2016-11-03T02:38:57.108Z,0
2016-11-03T02:39:57.056Z,0
2016-11-03T02:40:57.053Z,0
2016-11-03T02:41:57.056Z,0
2016-11-03T02:42:57.078Z,0
2016-11-03T02:43:57.037Z,0
2016-11-03T02:44:57.075Z,0
2016-11-03T02:45:57.050Z,0
2016-11-03T02:46:57.136Z,0
2016-11-03T02:47:57.079Z,0
2016-11-03T02:48:57.085Z,0
2016-11-03T02:49:57.149Z,0
2016-11-03T02:50:57.101Z,0
2016-11-03T02:51:57.149Z,0
2016-11-03T02:52:57.558Z,0
2016-11-03T02:53:57.146Z,0
2016-11-03T02:54:57.156Z,0
2016-11-03T02:55:57.114Z,0
2016-11-03T02:56:57.038Z,0
2016-11-03T02:57:57.079Z,0
2016-11-03T02:58:57.053Z,0
2016-11-03T02:59:57.108Z,0
2016-11-03T03:00:57.099Z,0
2016-11-03T03:01:57.052Z,0
2016-11-03T03:02:57.088Z,0
2016-11-03T03:03:57.082Z,0
2016-11-03T03:04:57.054Z,0
2016-11-03T03:05:57.049Z,0
2016-11-03T03:06:58.046Z,0
2016-11-03T03:07:57.043Z,0
2016-11-03T03:08:57.056Z,0
2016-11-03T03:09:57.112Z,0
2016-11-03T03:10:57.081Z,0
2016-11-03T03:11:57.053Z,0
2016-11-03T03:12:57.078Z,0
2016-11-03T03:13:57.121Z,0
2016-11-03T03:14:57.098Z,0
2016-11-03T03:15:57.099Z,0
2016-11-03T03:16:57.078Z,0
2016-11-03T03:17:57.358Z,0
2016-11-03T03:18:57.069Z,0
2016-11-03T03:19:57.076Z,0
2016-11-03T03:20:57.072Z,0
2016-11-03T03:21:57.093Z,0
2016-11-03T03:22:57.075Z,0
2016-11-03T03:23:57.073Z,0
2016-11-03T03:24:57.096Z,0
2016-11-03T03:25:57.072Z,0
2016-11-03T03:26:57.094Z,0
2016-11-03T03:27:57.083Z,0
2016-11-03T03:28:57.139Z,0
2016-11-03T03:29:57.184Z,0
2016-11-03T03:30:57.101Z,0
2016-11-03T03:31:57.093Z,0
2016-11-03T03:32:57.114Z,0
2016-11-03T03:33:57.102Z,0
2016-11-03T03:34:57.155Z,0
2016-11-03T03:35:57.154Z,0
2016-11-03T03:36:57.101Z,0
2016-11-03T03:37:57.128Z,0
2016-11-03T03:38:57.096Z,0
2016-11-03T03:39:57.096Z,0
2016-11-03T03:40:57.069Z,0
2016-11-03T03:41:57.079Z,0
2016-11-03T03:42:57.059Z,0
2016-11-03T03:43:57.066Z,0
2016-11-03T03:44:57.081Z,0
2016-11-03T03:45:57.101Z,0
2016-11-03T03:46:57.139Z,0
2016-11-03T03:47:57.128Z,0
2016-11-03T03:48:57.140Z,0
2016-11-03T03:49:57.140Z,0
2016-11-03T03:50:57.088Z,0
2016-11-03T03:51:57.093Z,0
2016-11-03T03:52:57.107Z,0
2016-11-03T03:53:57.147Z,0
2016-11-03T03:54:57.152Z,0
2016-11-03T03:55:57.177Z,0
2016-11-03T03:56:57.104Z,0
2016-11-03T03:57:57.086Z,0
2016-11-03T03:58:57.195Z,0
2016-11-03T03:59:57.125Z,0
2016-11-03T04:00:57.145Z,0
2016-11-03T04:01:57.229Z,0
2016-11-03T04:02:57.134Z,0
2016-11-03T04:03:57.098Z,0
2016-11-03T04:04:57.155Z,0
2016-11-03T04:05:57.139Z,0
2016-11-03T04:06:57.130Z,0
2016-11-03T04:07:57.195Z,0
2016-11-03T04:08:57.117Z,0
2016-11-03T04:09:57.139Z,0
2016-11-03T04:10:57.114Z,0
2016-11-03T04:11:57.184Z,0
2016-11-03T04:12:57.211Z,0
2016-11-03T04:13:57.113Z,0
2016-11-03T04:14:57.123Z,0
2016-11-03T04:15:57.104Z,0
2016-11-03T04:16:57.140Z,0
2016-11-03T04:17:57.120Z,0
2016-11-03T04:18:57.111Z,0
2016-11-03T04:19:57.157Z,0
2016-11-03T04:20:57.117Z,0
2016-11-03T04:21:57.130Z,0
2016-11-03T04:22:57.187Z,0
2016-11-03T04:23:57.133Z,0
2016-11-03T04:24:57.201Z,0
2016-11-03T04:25:57.158Z,0
2016-11-03T04:26:57.165Z,0
2016-11-03T04:27:57.137Z,0
2016-11-03T04:28:57.101Z,0
2016-11-03T04:29:57.132Z,0
2016-11-03T04:30:57.143Z,0
2016-11-03T04:31:57.126Z,0
2016-11-03T04:32:57.149Z,0
2016-11-03T04:33:57.193Z,0
2016-11-03T04:34:57.184Z,0
2016-11-03T04:35:57.150Z,0
2016-11-03T04:36:57.142Z,0
2016-11-03T04:37:57.136Z,0
2016-11-03T04:38:57.084Z,0
2016-11-03T04:39:57.165Z,0
2016-11-03T04:40:57.138Z,0
2016-11-03T04:41:57.115Z,0
2016-11-03T04:42:57.137Z,0
2016-11-03T04:43:57.172Z,0
2016-11-03T04:44:57.149Z,0
2016-11-03T04:45:57.132Z,0
2016-11-03T04:46:57.184Z,0
2016-11-03T04:47:57.144Z,0
2016-11-03T04:48:57.153Z,0
2016-11-03T04:49:57.143Z,0
2016-11-03T04:50:57.164Z,0
2016-11-03T04:51:57.187Z,0
2016-11-03T04:52:57.167Z,0
2016-11-03T04:53:57.160Z,0
2016-11-03T04:54:57.152Z,0
2016-11-03T04:55:57.211Z,0
2016-11-03T04:56:57.280Z,0
2016-11-03T04:57:57.137Z,0
2016-11-03T04:58:57.158Z,0
2016-11-03T04:59:57.193Z,0
2016-11-03T05:00:57.142Z,0
2016-11-03T05:01:57.194Z,0
2016-11-03T05:02:57.155Z,0
2016-11-03T05:03:57.184Z,0
2016-11-03T05:04:57.226Z,0
2016-11-03T05:05:57.167Z,0
2016-11-03T05:06:57.175Z,0
2016-11-03T05:07:57.172Z,0
2016-11-03T05:08:57.181Z,0
2016-11-03T05:09:57.186Z,0
2016-11-03T05:10:57.181Z,0
2016-11-03T05:11:57.159Z,0
2016-11-03T05:12:57.229Z,0
2016-11-03T05:13:57.213Z,0
2016-11-03T05:14:57.279Z,0
2016-11-03T05:15:57.218Z,0
2016-11-03T05:16:57.226Z,0
2016-11-03T05:17:57.215Z,0
2016-11-03T05:18:57.202Z,0
2016-11-03T05:19:57.229Z,0
2016-11-03T05:20:57.193Z,0
2016-11-03T05:21:57.218Z,0
2016-11-03T05:22:57.193Z,0
2016-11-03T05:23:58.292Z,0
2016-11-03T05:24:57.186Z,0
2016-11-03T05:25:57.124Z,0
2016-11-03T05:26:57.164Z,0
2016-11-03T05:27:57.169Z,0
2016-11-03T05:28:57.258Z,0
2016-11-03T05:29:57.196Z,0
2016-11-03T05:30:57.158Z,0
2016-11-03T05:31:57.151Z,0
2016-11-03T05:32:57.172Z,0
2016-11-03T05:33:57.180Z,0
2016-11-03T05:34:57.248Z,0
2016-11-03T05:35:57.180Z,0
2016-11-03T05:36:57.140Z,0
2016-11-03T05:37:57.175Z,0
2016-11-03T05:38:57.167Z,0
2016-11-03T05:39:57.206Z,0
2016-11-03T05:40:57.194Z,0
2016-11-03T05:41:57.245Z,0
2016-11-03T05:42:57.196Z,0
2016-11-03T05:43:57.193Z,0
2016-11-03T05:44:57.190Z,0
2016-11-03T05:45:57.159Z,0
2016-11-03T05:46:57.189Z,0
2016-11-03T05:47:57.244Z,0
2016-11-03T05:48:57.180Z,0
2016-11-03T05:49:57.658Z,0
2016-11-03T05:50:57.178Z,0
2016-11-03T05:51:57.186Z,0
2016-11-03T05:52:57.232Z,0
2016-11-03T05:53:57.210Z,4
2016-11-03T05:54:57.210Z,0
2016-11-03T05:55:57.210Z,0
2016-11-03T05:56:57.205Z,4
2016-11-03T05:57:57.178Z,4
2016-11-03T05:58:57.255Z,4
2016-11-03T05:59:57.225Z,4
2016-11-03T06:00:57.215Z,4
2016-11-03T06:01:57.236Z,4
2016-11-03T06:02:57.212Z,4
2016-11-03T06:03:57.216Z,4
2016-11-03T06:04:57.215Z,8
2016-11-03T06:05:57.206Z,8
2016-11-03T06:06:57.213Z,12
2016-11-03T06:07:57.177Z,16
2016-11-03T06:08:57.238Z,12
2016-11-03T06:09:57.228Z,20
2016-11-03T06:10:57.249Z,20
2016-11-03T06:11:57.601Z,28
2016-11-03T06:12:57.250Z,32
2016-11-03T06:13:57.239Z,36
2016-11-03T06:14:57.263Z,40
2016-11-03T06:15:57.302Z,48
2016-11-03T06:16:57.260Z,56
2016-11-03T06:17:57.215Z,64
2016-11-03T06:18:57.250Z,68
2016-11-03T06:19:57.228Z,76
2016-11-03T06:20:57.265Z,88
2016-11-03T06:21:57.255Z,88
2016-11-03T06:22:57.338Z,96
2016-11-03T06:23:57.623Z,104
2016-11-03T06:24:58.417Z,112
2016-11-03T06:25:58.362Z,120
2016-11-03T06:26:57.903Z,140
2016-11-03T06:27:58.592Z,144
2016-11-03T06:28:57.235Z,164
2016-11-03T06:29:57.890Z,180
2016-11-03T06:30:58.156Z,192
2016-11-03T06:31:58.338Z,204
2016-11-03T06:32:57.282Z,224
2016-11-03T06:33:57.475Z,264
2016-11-03T06:34:57.361Z,296
2016-11-03T06:35:57.519Z,300
2016-11-03T06:36:58.071Z,316
2016-11-03T06:37:57.573Z,324
2016-11-03T06:38:57.756Z,352
2016-11-03T06:39:57.250Z,352
2016-11-03T06:40:57.612Z,392
2016-11-03T06:41:57.236Z,420
2016-11-03T06:42:57.314Z,444
2016-11-03T06:43:58.348Z,484
2016-11-03T06:44:57.233Z,580
2016-11-03T06:45:57.320Z,596
2016-11-03T06:46:57.234Z,668
2016-11-03T06:47:57.285Z,680
2016-11-03T06:48:57.532Z,716
2016-11-03T06:49:57.291Z,792
2016-11-03T06:50:57.365Z,796
2016-11-03T06:51:57.347Z,792
2016-11-03T06:52:57.253Z,764
2016-11-03T06:53:58.292Z,728
2016-11-03T06:54:57.276Z,752
2016-11-03T06:55:57.597Z,764
2016-11-03T06:56:57.333Z,772
2016-11-03T06:57:58.549Z,820
2016-11-03T06:58:57.378Z,748
2016-11-03T06:59:57.292Z,740
2016-11-03T07:00:57.947Z,768
2016-11-03T07:01:57.259Z,748
2016-11-03T07:02:57.312Z,848
2016-11-03T07:03:57.234Z,812
2016-11-03T07:04:57.309Z,792
2016-11-03T07:05:57.253Z,852
2016-11-03T07:06:57.270Z,908
2016-11-03T07:07:57.688Z,960
2016-11-03T07:08:57.286Z,1008
2016-11-03T07:09:57.287Z,1044
2016-11-03T07:10:57.337Z,1008
2016-11-03T07:11:57.428Z,904
2016-11-03T07:12:57.298Z,1012
2016-11-03T07:13:57.287Z,1084
2016-11-03T07:14:57.276Z,1076
2016-11-03T07:15:57.265Z,1072
2016-11-03T07:16:57.256Z,1056
2016-11-03T07:17:57.635Z,1132
2016-11-03T07:18:57.254Z,1216
2016-11-03T07:19:57.302Z,1324
2016-11-03T07:20:57.311Z,1352
2016-11-03T07:21:57.420Z,1464
2016-11-03T07:22:57.294Z,1392
2016-11-03T07:23:57.365Z,1432
2016-11-03T07:24:57.328Z,1336
2016-11-03T07:25:57.239Z,1404
2016-11-03T07:26:57.869Z,1396
2016-11-03T07:27:57.254Z,1444
2016-11-03T07:28:57.414Z,1424
2016-11-03T07:29:57.275Z,1412
2016-11-03T07:31:01.549Z,1396
2016-11-03T07:31:59.438Z,1428
2016-11-03T07:32:57.465Z,1456
2016-11-03T07:34:01.237Z,1432
2016-11-03T07:34:57.337Z,1492
2016-11-03T07:35:57.279Z,1632
2016-11-03T07:36:57.474Z,1768
2016-11-03T07:37:58.082Z,1988
2016-11-03T07:38:57.295Z,2112
2016-11-03T07:40:08.558Z,2268
2016-11-03T07:41:00.517Z,2068
2016-11-03T07:42:03.153Z,1988
2016-11-03T07:42:57.257Z,1840
2016-11-03T07:43:57.291Z,1856
2016-11-03T07:44:57.371Z,1584
2016-11-03T07:45:58.229Z,1456
2016-11-03T07:46:57.314Z,1272
2016-11-03T07:47:57.313Z,1360
2016-11-03T07:48:57.422Z,1400
2016-11-03T07:49:57.251Z,1384
2016-11-03T07:50:58.033Z,1492
2016-11-03T07:51:57.317Z,1760
2016-11-03T07:52:57.250Z,2092
2016-11-03T07:53:57.266Z,2300
2016-11-03T07:54:57.367Z,1952
2016-11-03T07:55:57.285Z,2112
2016-11-03T07:56:57.265Z,2428
2016-11-03T07:57:57.214Z,2568
2016-11-03T07:58:57.351Z,3000
2016-11-03T07:59:57.228Z,3244
2016-11-03T08:00:57.294Z,3228
2016-11-03T08:01:57.270Z,2800
2016-11-03T08:02:57.303Z,2776
2016-11-03T08:03:57.328Z,3176
2016-11-03T08:04:57.321Z,3208
2016-11-03T08:05:57.311Z,2860
2016-11-03T08:06:57.338Z,2780
2016-11-03T08:07:57.335Z,2828
2016-11-03T08:08:57.267Z,2956
2016-11-03T08:09:57.327Z,3104
2016-11-03T08:10:57.281Z,3032
2016-11-03T08:11:57.312Z,3004
2016-11-03T08:12:57.329Z,2912
2016-11-03T08:13:57.273Z,2632
2016-11-03T08:14:57.249Z,2468
2016-11-03T08:15:57.241Z,2716
2016-11-03T08:16:57.288Z,2792
2016-11-03T08:17:57.271Z,3036
2016-11-03T08:18:57.276Z,3156
2016-11-03T08:19:57.284Z,3660
2016-11-03T08:20:57.271Z,4012
2016-11-03T08:21:57.309Z,4376
2016-11-03T08:22:57.316Z,5020
2016-11-03T08:23:57.320Z,5824
2016-11-03T08:24:57.406Z,6068
2016-11-03T08:25:57.897Z,5964
2016-11-03T08:26:57.291Z,5580
2016-11-03T08:27:57.276Z,5436
2016-11-03T08:28:57.285Z,5172
2016-11-03T08:29:57.305Z,4856
2016-11-03T08:30:57.308Z,5024
2016-11-03T08:31:57.380Z,4792
2016-11-03T08:32:57.318Z,5064
2016-11-03T08:33:57.283Z,5064
2016-11-03T08:34:57.342Z,5580
2016-11-03T08:35:57.334Z,5780
2016-11-03T08:36:57.838Z,5464
2016-11-03T08:37:58.008Z,4500
2016-11-03T08:38:57.378Z,4648
2016-11-03T08:39:58.074Z,4044
2016-11-03T08:40:57.336Z,4016
2016-11-03T08:41:57.370Z,4128
2016-11-03T08:42:57.457Z,4700
2016-11-03T08:43:57.310Z,4492
2016-11-03T08:44:57.319Z,4588
2016-11-03T08:45:57.351Z,4228
2016-11-03T08:46:58.046Z,4916
2016-11-03T08:47:57.302Z,4912
2016-11-03T08:48:57.279Z,4820
2016-11-03T08:49:57.265Z,4936
2016-11-03T08:50:57.306Z,4580
2016-11-03T08:51:57.265Z,4452
2016-11-03T08:52:57.268Z,4520
2016-11-03T08:53:57.367Z,4516
2016-11-03T08:54:57.317Z,4172
2016-11-03T08:55:57.378Z,4560
2016-11-03T08:56:57.281Z,4336
2016-11-03T08:57:57.250Z,4440
2016-11-03T08:58:57.266Z,4304
2016-11-03T08:59:57.288Z,5000
2016-11-03T09:00:57.476Z,5996
2016-11-03T09:01:57.330Z,5376
2016-11-03T09:02:57.338Z,5948
2016-11-03T09:03:57.396Z,6032
2016-11-03T09:04:57.351Z,6260
2016-11-03T09:05:57.393Z,5868
2016-11-03T09:06:57.378Z,5956
2016-11-03T09:07:57.416Z,5760
2016-11-03T09:08:57.397Z,6664
2016-11-03T09:09:57.450Z,6896
2016-11-03T09:10:57.480Z,7496
2016-11-03T09:11:57.371Z,6900
2016-11-03T09:12:57.418Z,7456
2016-11-03T09:13:57.380Z,8096
2016-11-03T09:14:57.345Z,8540
2016-11-03T09:15:57.384Z,8460
2016-11-03T09:16:57.366Z,8592
2016-11-03T09:17:57.985Z,8268
2016-11-03T09:18:57.332Z,8344
2016-11-03T09:19:57.369Z,7660
2016-11-03T09:20:57.322Z,7032
2016-11-03T09:21:57.403Z,7388
2016-11-03T09:22:57.386Z,7768
2016-11-03T09:23:57.325Z,8312
2016-11-03T09:24:57.386Z,8192
2016-11-03T09:25:57.386Z,7768
2016-11-03T09:26:57.354Z,6840
2016-11-03T09:27:57.346Z,6360
2016-11-03T09:28:57.353Z,5624
2016-11-03T09:29:57.349Z,5616
2016-11-03T09:30:57.369Z,5500
2016-11-03T09:31:57.949Z,5340
2016-11-03T09:32:57.442Z,6008
2016-11-03T09:33:57.344Z,6432
2016-11-03T09:34:57.404Z,6680
2016-11-03T09:35:57.382Z,6672
2016-11-03T09:36:57.397Z,6664
2016-11-03T09:37:57.399Z,6584
2016-11-03T09:38:58.021Z,6720
2016-11-03T09:39:57.359Z,6684
2016-11-03T09:40:57.814Z,7060
2016-11-03T09:41:57.309Z,6708
2016-11-03T09:42:57.359Z,7172
2016-11-03T09:43:57.339Z,7344
2016-11-03T09:44:57.372Z,7540
2016-11-03T09:45:57.356Z,7068
2016-11-03T09:46:57.305Z,6532
2016-11-03T09:47:57.323Z,6860
2016-11-03T09:48:57.342Z,6568
2016-11-03T09:49:57.359Z,6348
2016-11-03T09:50:57.468Z,6600
2016-11-03T09:51:57.410Z,6964
2016-11-03T09:52:57.391Z,7248
2016-11-03T09:53:57.394Z,7344
2016-11-03T09:54:57.372Z,7468
2016-11-03T09:55:57.417Z,7444
2016-11-03T09:56:57.345Z,7460
2016-11-03T09:57:57.347Z,7128
2016-11-03T09:58:57.343Z,6808
2016-11-03T09:59:57.427Z,6700
2016-11-03T10:00:57.375Z,6688
2016-11-03T10:01:57.340Z,6776
2016-11-03T10:02:57.320Z,7148
2016-11-03T10:03:57.345Z,7108
2016-11-03T10:04:57.357Z,7164
2016-11-03T10:05:57.383Z,7532
2016-11-03T10:06:57.360Z,7804
2016-11-03T10:07:57.476Z,7980
2016-11-03T10:08:57.636Z,8320
2016-11-03T10:09:57.394Z,8132
2016-11-03T10:10:57.374Z,8248
2016-11-03T10:11:57.637Z,8476
2016-11-03T10:12:57.359Z,8188
2016-11-03T10:13:57.375Z,8048
2016-11-03T10:14:57.422Z,7856
2016-11-03T10:15:57.445Z,7872
2016-11-03T10:16:57.381Z,7536
2016-11-03T10:17:57.362Z,7240
2016-11-03T10:18:57.439Z,7628
2016-11-03T10:19:57.369Z,7928
2016-11-03T10:20:57.400Z,8056
2016-11-03T10:21:58.142Z,7968
2016-11-03T10:22:57.515Z,8064
2016-11-03T10:23:57.529Z,7992
2016-11-03T10:24:57.395Z,8416
2016-11-03T10:25:57.486Z,8284
2016-11-03T10:26:57.390Z,8284
2016-11-03T10:27:57.401Z,8176
2016-11-03T10:28:57.422Z,8300
2016-11-03T10:29:57.444Z,8564
2016-11-03T10:30:57.436Z,7996
2016-11-03T10:31:57.473Z,7920
2016-11-03T10:32:57.419Z,7720
2016-11-03T10:33:57.468Z,7944
2016-11-03T10:34:57.566Z,7848
2016-11-03T10:35:57.519Z,8112
2016-11-03T10:36:57.503Z,8348
2016-11-03T10:37:57.483Z,8168
2016-11-03T10:38:57.437Z,7876
2016-11-03T10:39:57.411Z,7980
2016-11-03T10:40:57.419Z,8080
2016-11-03T10:41:57.458Z,8156
2016-11-03T10:42:57.504Z,8420
2016-11-03T10:43:57.448Z,8096
2016-11-03T10:44:57.446Z,7784
2016-11-03T10:45:57.454Z,7788
2016-11-03T10:46:57.455Z,7968
2016-11-03T10:47:57.478Z,7636
2016-11-03T10:48:57.446Z,7684
2016-11-03T10:49:57.459Z,7268
2016-11-03T10:50:57.467Z,6772
2016-11-03T10:51:57.552Z,6560
2016-11-03T10:52:57.492Z,6220
2016-11-03T10:53:57.438Z,6424
2016-11-03T10:54:57.460Z,6640
2016-11-03T10:55:57.500Z,6772
2016-11-03T10:56:57.624Z,7164
2016-11-03T10:57:57.473Z,7244
2016-11-03T10:58:57.486Z,7928
2016-11-03T10:59:57.409Z,6352
2016-11-03T11:00:57.455Z,7172
2016-11-03T11:01:57.469Z,7184
2016-11-03T11:02:57.459Z,7552
2016-11-03T11:03:57.419Z,6548
2016-11-03T11:04:57.435Z,7156
2016-11-03T11:05:57.460Z,7396
2016-11-03T11:06:57.435Z,6744
2016-11-03T11:07:57.441Z,5712
2016-11-03T11:08:57.397Z,6104
2016-11-03T11:09:57.597Z,6172
2016-11-03T11:10:57.426Z,7312
2016-11-03T11:11:57.450Z,6528
2016-11-03T11:12:57.668Z,7432
2016-11-03T11:13:57.448Z,7348
2016-11-03T11:14:57.477Z,6760
2016-11-03T11:15:57.450Z,7688
2016-11-03T11:16:57.440Z,6704
2016-11-03T11:17:57.420Z,6888
2016-11-03T11:18:57.467Z,6544
2016-11-03T11:19:57.440Z,7316
2016-11-03T11:20:57.495Z,7596
2016-11-03T11:21:57.454Z,7528
2016-11-03T11:22:57.428Z,7184
2016-11-03T11:23:57.437Z,6932
2016-11-03T11:24:57.474Z,7164
2016-11-03T11:25:57.479Z,7672
2016-11-03T11:26:57.447Z,8428
2016-11-03T11:27:57.494Z,8220
2016-11-03T11:28:57.485Z,8064
2016-11-03T11:29:57.463Z,8732
2016-11-03T11:30:57.550Z,7928
2016-11-03T11:31:57.464Z,7260
2016-11-03T11:32:57.473Z,7552
2016-11-03T11:33:57.504Z,7736
2016-11-03T11:34:57.575Z,7868
2016-11-03T11:35:58.283Z,7444
2016-11-03T11:36:57.504Z,7936
2016-11-03T11:37:57.492Z,7900
2016-11-03T11:38:57.482Z,8144
2016-11-03T11:39:57.516Z,8276
2016-11-03T11:40:57.535Z,8512
2016-11-03T11:41:58.439Z,8888
2016-11-03T11:42:57.463Z,9132
2016-11-03T11:43:57.586Z,8292
2016-11-03T11:44:57.478Z,8400
2016-11-03T11:45:57.632Z,8128
2016-11-03T11:46:57.475Z,8404
2016-11-03T11:47:57.478Z,8768
2016-11-03T11:48:57.508Z,8976
2016-11-03T11:49:57.586Z,8248
2016-11-03T11:50:57.495Z,7788
2016-11-03T11:51:57.517Z,8016
2016-11-03T11:52:57.475Z,8512
2016-11-03T11:53:57.468Z,8828
2016-11-03T11:54:57.487Z,8740
2016-11-03T11:55:58.310Z,7572
2016-11-03T11:56:58.129Z,6932
2016-11-03T11:57:57.472Z,6584
2016-11-03T11:58:57.589Z,7624
2016-11-03T11:59:57.519Z,7260
2016-11-03T12:00:57.516Z,5844
2016-11-03T12:01:57.512Z,6652
2016-11-03T12:02:58.317Z,6544
2016-11-03T12:03:57.714Z,6348
2016-11-03T12:04:57.476Z,7340
2016-11-03T12:05:57.499Z,6320
2016-11-03T12:06:57.524Z,6864
2016-11-03T12:07:57.488Z,7856
2016-11-03T12:08:57.554Z,8336
2016-11-03T12:09:57.729Z,8596
2016-11-03T12:10:57.497Z,8148
2016-11-03T12:11:57.471Z,8128
2016-11-03T12:12:57.484Z,8220
2016-11-03T12:13:57.491Z,7568
2016-11-03T12:14:57.463Z,6856
2016-11-03T12:15:57.514Z,7508
2016-11-03T12:16:57.495Z,6196
2016-11-03T12:17:57.498Z,5908
2016-11-03T12:18:57.553Z,5868
2016-11-03T12:19:57.598Z,6120
2016-11-03T12:20:57.571Z,6116
2016-11-03T12:21:57.561Z,5928
2016-11-03T12:22:57.555Z,5872
2016-11-03T12:23:57.517Z,6076
2016-11-03T12:24:57.577Z,6712
2016-11-03T12:25:57.617Z,6684
2016-11-03T12:26:57.530Z,6396
2016-11-03T12:27:57.617Z,6432
2016-11-03T12:28:57.522Z,6808
2016-11-03T12:29:57.569Z,5572
2016-11-03T12:30:57.580Z,5160
2016-11-03T12:31:57.604Z,6452
2016-11-03T12:32:57.601Z,5764
2016-11-03T12:33:57.596Z,5772
2016-11-03T12:34:57.585Z,5764
2016-11-03T12:35:57.570Z,6264
2016-11-03T12:36:57.868Z,5872
2016-11-03T12:37:57.749Z,5548
2016-11-03T12:38:58.553Z,5788
2016-11-03T12:39:58.118Z,5576
2016-11-03T12:40:58.622Z,5656
2016-11-03T12:41:57.985Z,5104
2016-11-03T12:42:58.540Z,5132
2016-11-03T12:43:57.691Z,5328
2016-11-03T12:44:57.516Z,5028
2016-11-03T12:45:57.660Z,4848
2016-11-03T12:46:57.689Z,4824
2016-11-03T12:47:58.067Z,4944
2016-11-03T12:48:57.666Z,4848
2016-11-03T12:49:57.622Z,4964
2016-11-03T12:50:57.725Z,5156
2016-11-03T12:51:57.656Z,5076
2016-11-03T12:52:57.661Z,5364
2016-11-03T12:53:57.763Z,5240
2016-11-03T12:54:57.611Z,5356
2016-11-03T12:55:57.843Z,5520
2016-11-03T12:56:57.692Z,5624
2016-11-03T12:57:57.932Z,5736
2016-11-03T12:58:57.649Z,6104
2016-11-03T12:59:57.684Z,6040
2016-11-03T13:00:57.665Z,6020
2016-11-03T13:01:57.660Z,5944
2016-11-03T13:02:57.698Z,6012
2016-11-03T13:03:57.631Z,5824
2016-11-03T13:04:57.657Z,5952
2016-11-03T13:05:57.779Z,6144
2016-11-03T13:06:57.665Z,5812
2016-11-03T13:07:57.767Z,5936
2016-11-03T13:08:57.622Z,6204
2016-11-03T13:09:57.611Z,6296
2016-11-03T13:10:58.159Z,6088
2016-11-03T13:11:57.630Z,6364
2016-11-03T13:12:57.704Z,6656
2016-11-03T13:13:57.532Z,6916
2016-11-03T13:14:57.754Z,7100
2016-11-03T13:15:57.688Z,6868
2016-11-03T13:16:57.647Z,6872
2016-11-03T13:17:57.538Z,6988
2016-11-03T13:18:57.578Z,7180
2016-11-03T13:19:57.916Z,7192
2016-11-03T13:20:57.779Z,7288
2016-11-03T13:21:57.653Z,7328
2016-11-03T13:22:57.581Z,7080
2016-11-03T13:23:57.776Z,6848
2016-11-03T13:24:58.004Z,6568
2016-11-03T13:25:57.687Z,6344
2016-11-03T13:26:57.542Z,6000
2016-11-03T13:27:57.582Z,6016
2016-11-03T13:28:57.653Z,5868
2016-11-03T13:29:58.002Z,5876
2016-11-03T13:30:57.800Z,5400
2016-11-03T13:31:57.651Z,4900
2016-11-03T13:32:57.731Z,4764
2016-11-03T13:33:57.855Z,5044
2016-11-03T13:34:57.745Z,4552
2016-11-03T13:35:57.836Z,4532
2016-11-03T13:36:57.845Z,4712
2016-11-03T13:37:57.578Z,4512
2016-11-03T13:38:57.793Z,4600
2016-11-03T13:39:57.795Z,4936
2016-11-03T13:40:57.754Z,4696
2016-11-03T13:41:57.709Z,4600
2016-11-03T13:42:57.674Z,4352
2016-11-03T13:43:57.547Z,4184
2016-11-03T13:44:57.570Z,3828
2016-11-03T13:45:57.554Z,3668
2016-11-03T13:46:57.555Z,3656
2016-11-03T13:47:57.616Z,3756
2016-11-03T13:48:57.564Z,3616
2016-11-03T13:50:00.226Z,3568
2016-11-03T13:50:58.276Z,3500
2016-11-03T13:51:57.895Z,3508
2016-11-03T13:52:58.111Z,3564
2016-11-03T13:53:59.399Z,3580
2016-11-03T13:54:58.224Z,3488
2016-11-03T13:55:58.017Z,3836
2016-11-03T13:56:58.672Z,3668
2016-11-03T13:57:57.948Z,3648